sensor_id;sensor_type;location;lat;lon;timestamp;P1;durP1;ratioP1;P2;durP2;ratioP2
62050;SDS011;48008;51.204;6.766;2023-02-28T00:00:17;18.98;;;7.55;;
62050;SDS011;48008;51.204;6.766;2023-02-28T00:02:45;15.90;;;6.80;;
62050;SDS011;48008;51.204;6.766;2023-02-28T00:05:13;17.13;;;6.38;;
62050;SDS011;48008;51.204;6.766;2023-02-28T00:07:42;17.65;;;6.47;;
62050;SDS011;48008;51.204;6.766;2023-02-28T00:10:10;15.68;;;7.18;;
62050;SDS011;48008;51.204;6.766;2023-02-28T00:12:39;16.17;;;6.53;;
62050;SDS011;48008;51.204;6.766;2023-02-28T00:15:07;17.27;;;6.22;;
62050;SDS011;48008;51.204;6.766;2023-02-28T00:17:36;16.90;;;6.82;;
62050;SDS011;48008;51.204;6.766;2023-02-28T00:20:04;16.20;;;6.57;;
62050;SDS011;48008;51.204;6.766;2023-02-28T00:22:40;18.55;;;6.50;;
62050;SDS011;48008;51.204;6.766;2023-02-28T00:25:09;17.13;;;7.50;;
62050;SDS011;48008;51.204;6.766;2023-02-28T00:27:37;17.10;;;7.18;;
62050;SDS011;48008;51.204;6.766;2023-02-28T00:30:05;17.38;;;7.65;;
62050;SDS011;48008;51.204;6.766;2023-02-28T00:32:33;22.40;;;8.68;;
62050;SDS011;48008;51.204;6.766;2023-02-28T00:35:01;16.10;;;6.90;;
62050;SDS011;48008;51.204;6.766;2023-02-28T00:37:28;16.63;;;7.47;;
62050;SDS011;48008;51.204;6.766;2023-02-28T00:39:55;19.48;;;7.13;;
62050;SDS011;48008;51.204;6.766;2023-02-28T00:42:22;19.30;;;7.55;;
62050;SDS011;48008;51.204;6.766;2023-02-28T00:44:49;18.52;;;7.60;;
62050;SDS011;48008;51.204;6.766;2023-02-28T00:47:16;24.58;;;7.97;;
62050;SDS011;48008;51.204;6.766;2023-02-28T00:49:43;21.00;;;8.30;;
62050;SDS011;48008;51.204;6.766;2023-02-28T00:52:10;19.05;;;7.90;;
62050;SDS011;48008;51.204;6.766;2023-02-28T00:54:36;21.27;;;7.95;;
62050;SDS011;48008;51.204;6.766;2023-02-28T00:57:03;16.45;;;7.60;;
62050;SDS011;48008;51.204;6.766;2023-02-28T00:59:31;19.75;;;7.80;;
62050;SDS011;48008;51.204;6.766;2023-02-28T01:01:57;21.25;;;8.02;;
62050;SDS011;48008;51.204;6.766;2023-02-28T01:04:24;18.27;;;7.47;;
62050;SDS011;48008;51.204;6.766;2023-02-28T01:06:51;17.90;;;7.07;;
62050;SDS011;48008;51.204;6.766;2023-02-28T01:09:18;19.38;;;7.53;;
62050;SDS011;48008;51.204;6.766;2023-02-28T01:11:45;18.08;;;7.97;;
62050;SDS011;48008;51.204;6.766;2023-02-28T01:14:13;26.67;;;8.07;;
62050;SDS011;48008;51.204;6.766;2023-02-28T01:16:41;19.80;;;8.30;;
62050;SDS011;48008;51.204;6.766;2023-02-28T01:19:08;22.95;;;7.82;;
62050;SDS011;48008;51.204;6.766;2023-02-28T01:21:37;18.48;;;8.10;;
62050;SDS011;48008;51.204;6.766;2023-02-28T01:24:04;21.33;;;7.50;;
62050;SDS011;48008;51.204;6.766;2023-02-28T01:26:32;18.48;;;7.82;;
62050;SDS011;48008;51.204;6.766;2023-02-28T01:28:59;18.17;;;7.75;;
62050;SDS011;48008;51.204;6.766;2023-02-28T01:31:25;17.20;;;7.63;;
62050;SDS011;48008;51.204;6.766;2023-02-28T01:33:52;17.83;;;7.28;;
62050;SDS011;48008;51.204;6.766;2023-02-28T01:36:20;17.63;;;7.03;;
62050;SDS011;48008;51.204;6.766;2023-02-28T01:38:49;18.40;;;7.72;;
62050;SDS011;48008;51.204;6.766;2023-02-28T01:41:17;19.83;;;7.38;;
62050;SDS011;48008;51.204;6.766;2023-02-28T01:46:24;19.90;;;6.90;;
62050;SDS011;48008;51.204;6.766;2023-02-28T01:49:00;15.70;;;6.63;;
62050;SDS011;48008;51.204;6.766;2023-02-28T01:51:41;19.10;;;7.43;;
62050;SDS011;48008;51.204;6.766;2023-02-28T01:54:14;18.83;;;7.30;;
62050;SDS011;48008;51.204;6.766;2023-02-28T01:56:47;19.65;;;7.20;;
62050;SDS011;48008;51.204;6.766;2023-02-28T01:59:22;20.13;;;7.15;;
62050;SDS011;48008;51.204;6.766;2023-02-28T02:01:54;16.58;;;6.93;;
62050;SDS011;48008;51.204;6.766;2023-02-28T02:04:21;19.90;;;7.45;;
62050;SDS011;48008;51.204;6.766;2023-02-28T02:06:52;20.45;;;6.68;;
62050;SDS011;48008;51.204;6.766;2023-02-28T02:09:18;17.52;;;6.97;;
62050;SDS011;48008;51.204;6.766;2023-02-28T02:11:45;18.55;;;6.97;;
62050;SDS011;48008;51.204;6.766;2023-02-28T02:14:22;18.60;;;7.25;;
62050;SDS011;48008;51.204;6.766;2023-02-28T02:17:24;16.65;;;7.35;;
62050;SDS011;48008;51.204;6.766;2023-02-28T02:25:51;15.70;;;6.13;;
62050;SDS011;48008;51.204;6.766;2023-02-28T02:31:33;14.85;;;6.90;;
62050;SDS011;48008;51.204;6.766;2023-02-28T02:34:28;14.20;;;6.72;;
62050;SDS011;48008;51.204;6.766;2023-02-28T02:48:13;16.48;;;7.18;;
62050;SDS011;48008;51.204;6.766;2023-02-28T02:50:46;19.15;;;7.82;;
62050;SDS011;48008;51.204;6.766;2023-02-28T02:53:18;19.77;;;7.70;;
62050;SDS011;48008;51.204;6.766;2023-02-28T02:55:52;17.80;;;7.93;;
62050;SDS011;48008;51.204;6.766;2023-02-28T02:58:24;15.68;;;7.15;;
62050;SDS011;48008;51.204;6.766;2023-02-28T03:00:55;20.33;;;7.70;;
62050;SDS011;48008;51.204;6.766;2023-02-28T03:03:27;19.05;;;7.28;;
62050;SDS011;48008;51.204;6.766;2023-02-28T03:05:57;18.40;;;7.63;;
62050;SDS011;48008;51.204;6.766;2023-02-28T03:08:25;16.13;;;7.13;;
62050;SDS011;48008;51.204;6.766;2023-02-28T03:10:56;18.63;;;7.95;;
62050;SDS011;48008;51.204;6.766;2023-02-28T03:22:54;18.83;;;7.72;;
62050;SDS011;48008;51.204;6.766;2023-02-28T03:25:36;21.98;;;7.85;;
62050;SDS011;48008;51.204;6.766;2023-02-28T03:28:19;23.83;;;8.27;;
62050;SDS011;48008;51.204;6.766;2023-02-28T03:31:07;18.20;;;7.75;;
62050;SDS011;48008;51.204;6.766;2023-02-28T03:33:59;20.88;;;7.57;;
62050;SDS011;48008;51.204;6.766;2023-02-28T03:36:34;18.85;;;8.05;;
62050;SDS011;48008;51.204;6.766;2023-02-28T03:39:13;17.10;;;8.02;;
62050;SDS011;48008;51.204;6.766;2023-02-28T03:41:50;16.85;;;7.25;;
62050;SDS011;48008;51.204;6.766;2023-02-28T03:44:24;15.93;;;7.22;;
62050;SDS011;48008;51.204;6.766;2023-02-28T03:46:56;17.02;;;7.43;;
62050;SDS011;48008;51.204;6.766;2023-02-28T03:49:31;16.38;;;7.60;;
62050;SDS011;48008;51.204;6.766;2023-02-28T03:52:02;14.88;;;6.20;;
62050;SDS011;48008;51.204;6.766;2023-02-28T03:54:32;17.90;;;7.50;;
62050;SDS011;48008;51.204;6.766;2023-02-28T03:57:06;17.17;;;6.63;;
62050;SDS011;48008;51.204;6.766;2023-02-28T03:59:42;16.48;;;6.70;;
62050;SDS011;48008;51.204;6.766;2023-02-28T04:02:14;13.13;;;6.60;;
62050;SDS011;48008;51.204;6.766;2023-02-28T04:04:41;17.23;;;7.20;;
62050;SDS011;48008;51.204;6.766;2023-02-28T04:07:11;18.85;;;6.28;;
62050;SDS011;48008;51.204;6.766;2023-02-28T04:09:38;13.95;;;6.18;;
62050;SDS011;48008;51.204;6.766;2023-02-28T04:12:05;16.70;;;6.68;;
62050;SDS011;48008;51.204;6.766;2023-02-28T04:14:32;15.38;;;6.38;;
62050;SDS011;48008;51.204;6.766;2023-02-28T04:16:58;17.58;;;6.88;;
62050;SDS011;48008;51.204;6.766;2023-02-28T04:19:25;17.70;;;6.75;;
62050;SDS011;48008;51.204;6.766;2023-02-28T04:21:52;14.32;;;6.10;;
62050;SDS011;48008;51.204;6.766;2023-02-28T04:24:21;15.00;;;6.05;;
62050;SDS011;48008;51.204;6.766;2023-02-28T04:26:51;17.23;;;6.57;;
62050;SDS011;48008;51.204;6.766;2023-02-28T04:31:59;19.65;;;6.95;;
62050;SDS011;48008;51.204;6.766;2023-02-28T04:34:29;17.85;;;6.85;;
62050;SDS011;48008;51.204;6.766;2023-02-28T04:36:57;16.08;;;6.40;;
62050;SDS011;48008;51.204;6.766;2023-02-28T04:39:38;14.35;;;6.65;;
62050;SDS011;48008;51.204;6.766;2023-02-28T04:42:05;16.48;;;6.47;;
62050;SDS011;48008;51.204;6.766;2023-02-28T04:44:31;15.05;;;6.30;;
62050;SDS011;48008;51.204;6.766;2023-02-28T04:46:58;14.85;;;6.75;;
62050;SDS011;48008;51.204;6.766;2023-02-28T04:49:25;13.88;;;6.28;;
62050;SDS011;48008;51.204;6.766;2023-02-28T04:51:52;15.45;;;6.32;;
62050;SDS011;48008;51.204;6.766;2023-02-28T04:54:19;12.18;;;5.90;;
62050;SDS011;48008;51.204;6.766;2023-02-28T04:56:46;14.52;;;6.22;;
62050;SDS011;48008;51.204;6.766;2023-02-28T04:59:14;20.00;;;6.30;;
62050;SDS011;48008;51.204;6.766;2023-02-28T05:01:44;13.70;;;6.10;;
62050;SDS011;48008;51.204;6.766;2023-02-28T05:04:13;18.65;;;6.35;;
62050;SDS011;48008;51.204;6.766;2023-02-28T05:06:39;17.48;;;6.50;;
62050;SDS011;48008;51.204;6.766;2023-02-28T05:09:06;16.33;;;6.13;;
62050;SDS011;48008;51.204;6.766;2023-02-28T05:11:34;13.65;;;5.72;;
62050;SDS011;48008;51.204;6.766;2023-02-28T05:14:03;16.67;;;6.32;;
62050;SDS011;48008;51.204;6.766;2023-02-28T05:16:31;12.25;;;5.82;;
62050;SDS011;48008;51.204;6.766;2023-02-28T05:18:58;16.13;;;5.72;;
62050;SDS011;48008;51.204;6.766;2023-02-28T05:21:29;12.90;;;5.40;;
62050;SDS011;48008;51.204;6.766;2023-02-28T05:23:59;12.05;;;6.00;;
62050;SDS011;48008;51.204;6.766;2023-02-28T05:26:27;17.88;;;6.10;;
62050;SDS011;48008;51.204;6.766;2023-02-28T05:28:55;14.30;;;5.97;;
62050;SDS011;48008;51.204;6.766;2023-02-28T05:31:22;13.48;;;6.60;;
62050;SDS011;48008;51.204;6.766;2023-02-28T05:33:49;17.30;;;6.22;;
62050;SDS011;48008;51.204;6.766;2023-02-28T05:36:17;20.80;;;6.38;;
62050;SDS011;48008;51.204;6.766;2023-02-28T05:38:45;17.23;;;6.22;;
62050;SDS011;48008;51.204;6.766;2023-02-28T05:41:13;16.08;;;5.82;;
62050;SDS011;48008;51.204;6.766;2023-02-28T05:43:40;14.65;;;6.10;;
62050;SDS011;48008;51.204;6.766;2023-02-28T05:46:08;17.85;;;6.20;;
62050;SDS011;48008;51.204;6.766;2023-02-28T05:48:37;22.52;;;6.30;;
62050;SDS011;48008;51.204;6.766;2023-02-28T05:51:05;15.60;;;6.18;;
62050;SDS011;48008;51.204;6.766;2023-02-28T05:53:33;15.25;;;5.90;;
62050;SDS011;48008;51.204;6.766;2023-02-28T05:56:00;13.65;;;6.35;;
62050;SDS011;48008;51.204;6.766;2023-02-28T05:58:27;15.88;;;6.47;;
62050;SDS011;48008;51.204;6.766;2023-02-28T06:00:57;13.07;;;5.70;;
62050;SDS011;48008;51.204;6.766;2023-02-28T06:03:25;20.52;;;6.40;;
62050;SDS011;48008;51.204;6.766;2023-02-28T06:05:53;17.45;;;5.72;;
62050;SDS011;48008;51.204;6.766;2023-02-28T06:08:19;13.27;;;6.00;;
62050;SDS011;48008;51.204;6.766;2023-02-28T06:10:46;12.55;;;5.53;;
62050;SDS011;48008;51.204;6.766;2023-02-28T06:13:13;13.88;;;5.68;;
62050;SDS011;48008;51.204;6.766;2023-02-28T06:15:41;15.18;;;5.95;;
62050;SDS011;48008;51.204;6.766;2023-02-28T06:18:08;15.85;;;5.97;;
62050;SDS011;48008;51.204;6.766;2023-02-28T06:20:35;12.77;;;5.55;;
62050;SDS011;48008;51.204;6.766;2023-02-28T06:23:02;11.45;;;5.47;;
62050;SDS011;48008;51.204;6.766;2023-02-28T06:25:29;12.43;;;5.63;;
62050;SDS011;48008;51.204;6.766;2023-02-28T06:27:55;14.43;;;6.20;;
62050;SDS011;48008;51.204;6.766;2023-02-28T06:30:22;13.82;;;5.78;;
62050;SDS011;48008;51.204;6.766;2023-02-28T06:32:53;14.05;;;5.75;;
62050;SDS011;48008;51.204;6.766;2023-02-28T06:35:20;15.95;;;6.72;;
62050;SDS011;48008;51.204;6.766;2023-02-28T06:37:49;13.95;;;6.50;;
62050;SDS011;48008;51.204;6.766;2023-02-28T06:40:15;18.33;;;6.30;;
62050;SDS011;48008;51.204;6.766;2023-02-28T06:42:42;12.38;;;6.30;;
62050;SDS011;48008;51.204;6.766;2023-02-28T06:45:09;12.60;;;5.25;;
62050;SDS011;48008;51.204;6.766;2023-02-28T06:47:37;16.88;;;5.88;;
62050;SDS011;48008;51.204;6.766;2023-02-28T06:50:06;13.10;;;5.97;;
62050;SDS011;48008;51.204;6.766;2023-02-28T06:52:37;14.70;;;6.20;;
62050;SDS011;48008;51.204;6.766;2023-02-28T06:55:05;15.82;;;5.72;;
62050;SDS011;48008;51.204;6.766;2023-02-28T06:57:33;14.73;;;5.45;;
62050;SDS011;48008;51.204;6.766;2023-02-28T07:00:03;15.82;;;6.97;;
62050;SDS011;48008;51.204;6.766;2023-02-28T07:02:34;13.82;;;5.85;;
62050;SDS011;48008;51.204;6.766;2023-02-28T07:05:02;13.57;;;5.53;;
62050;SDS011;48008;51.204;6.766;2023-02-28T07:07:29;11.38;;;5.18;;
62050;SDS011;48008;51.204;6.766;2023-02-28T07:09:56;15.82;;;6.13;;
62050;SDS011;48008;51.204;6.766;2023-02-28T07:12:23;15.57;;;5.97;;
62050;SDS011;48008;51.204;6.766;2023-02-28T07:14:49;14.35;;;6.05;;
62050;SDS011;48008;51.204;6.766;2023-02-28T07:17:16;16.13;;;5.55;;
62050;SDS011;48008;51.204;6.766;2023-02-28T07:19:43;11.63;;;5.30;;
62050;SDS011;48008;51.204;6.766;2023-02-28T07:22:09;15.32;;;5.05;;
62050;SDS011;48008;51.204;6.766;2023-02-28T07:24:36;13.93;;;5.40;;
62050;SDS011;48008;51.204;6.766;2023-02-28T07:27:03;13.35;;;5.60;;
62050;SDS011;48008;51.204;6.766;2023-02-28T07:29:29;14.02;;;5.93;;
62050;SDS011;48008;51.204;6.766;2023-02-28T07:31:56;16.80;;;5.50;;
62050;SDS011;48008;51.204;6.766;2023-02-28T07:34:23;12.02;;;5.70;;
62050;SDS011;48008;51.204;6.766;2023-02-28T07:36:52;13.98;;;5.60;;
62050;SDS011;48008;51.204;6.766;2023-02-28T07:39:20;14.25;;;5.72;;
62050;SDS011;48008;51.204;6.766;2023-02-28T07:41:48;13.50;;;5.82;;
62050;SDS011;48008;51.204;6.766;2023-02-28T07:44:15;13.93;;;6.18;;
62050;SDS011;48008;51.204;6.766;2023-02-28T07:46:42;12.27;;;5.55;;
62050;SDS011;48008;51.204;6.766;2023-02-28T07:49:08;11.65;;;5.38;;
62050;SDS011;48008;51.204;6.766;2023-02-28T07:51:35;15.38;;;5.97;;
62050;SDS011;48008;51.204;6.766;2023-02-28T07:54:02;12.18;;;5.35;;
62050;SDS011;48008;51.204;6.766;2023-02-28T07:56:29;13.18;;;5.00;;
62050;SDS011;48008;51.204;6.766;2023-02-28T07:58:56;10.30;;;5.03;;
62050;SDS011;48008;51.204;6.766;2023-02-28T08:01:23;18.23;;;5.35;;
62050;SDS011;48008;51.204;6.766;2023-02-28T08:03:49;12.05;;;5.15;;
62050;SDS011;48008;51.204;6.766;2023-02-28T08:06:18;10.30;;;4.95;;
62050;SDS011;48008;51.204;6.766;2023-02-28T08:08:47;11.48;;;4.90;;
62050;SDS011;48008;51.204;6.766;2023-02-28T08:11:15;14.38;;;4.82;;
62050;SDS011;48008;51.204;6.766;2023-02-28T08:13:43;10.93;;;4.53;;
62050;SDS011;48008;51.204;6.766;2023-02-28T08:16:11;11.77;;;4.75;;
62050;SDS011;48008;51.204;6.766;2023-02-28T08:18:43;10.93;;;4.45;;
62050;SDS011;48008;51.204;6.766;2023-02-28T08:21:10;13.18;;;6.22;;
62050;SDS011;48008;51.204;6.766;2023-02-28T08:23:37;13.30;;;5.47;;
62050;SDS011;48008;51.204;6.766;2023-02-28T08:26:05;11.50;;;5.10;;
62050;SDS011;48008;51.204;6.766;2023-02-28T08:28:32;12.20;;;5.22;;
62050;SDS011;48008;51.204;6.766;2023-02-28T08:30:59;18.05;;;4.90;;
62050;SDS011;48008;51.204;6.766;2023-02-28T08:33:27;10.88;;;4.53;;
62050;SDS011;48008;51.204;6.766;2023-02-28T08:35:55;13.27;;;4.70;;
62050;SDS011;48008;51.204;6.766;2023-02-28T08:38:23;14.18;;;4.80;;
62050;SDS011;48008;51.204;6.766;2023-02-28T08:40:56;10.73;;;4.53;;
62050;SDS011;48008;51.204;6.766;2023-02-28T08:43:25;12.18;;;4.15;;
62050;SDS011;48008;51.204;6.766;2023-02-28T08:45:52;10.75;;;4.65;;
62050;SDS011;48008;51.204;6.766;2023-02-28T08:48:19;12.68;;;4.25;;
62050;SDS011;48008;51.204;6.766;2023-02-28T08:51:02;16.17;;;4.20;;
62050;SDS011;48008;51.204;6.766;2023-02-28T08:53:34;11.32;;;4.38;;
62050;SDS011;48008;51.204;6.766;2023-02-28T08:56:02;10.32;;;4.10;;
62050;SDS011;48008;51.204;6.766;2023-02-28T08:58:31;10.88;;;4.50;;
62050;SDS011;48008;51.204;6.766;2023-02-28T09:00:58;11.73;;;4.63;;
62050;SDS011;48008;51.204;6.766;2023-02-28T09:03:24;10.23;;;3.67;;
62050;SDS011;48008;51.204;6.766;2023-02-28T09:05:54;10.85;;;3.80;;
62050;SDS011;48008;51.204;6.766;2023-02-28T09:08:23;8.05;;;3.75;;
62050;SDS011;48008;51.204;6.766;2023-02-28T09:10:52;11.52;;;4.00;;
62050;SDS011;48008;51.204;6.766;2023-02-28T09:13:19;9.32;;;3.83;;
62050;SDS011;48008;51.204;6.766;2023-02-28T09:15:45;8.43;;;3.70;;
62050;SDS011;48008;51.204;6.766;2023-02-28T09:18:12;9.20;;;3.80;;
62050;SDS011;48008;51.204;6.766;2023-02-28T09:20:40;14.25;;;3.80;;
62050;SDS011;48008;51.204;6.766;2023-02-28T09:23:08;10.70;;;3.95;;
62050;SDS011;48008;51.204;6.766;2023-02-28T09:25:36;10.15;;;3.95;;
62050;SDS011;48008;51.204;6.766;2023-02-28T09:28:04;11.15;;;3.72;;
62050;SDS011;48008;51.204;6.766;2023-02-28T09:30:31;8.38;;;3.60;;
62050;SDS011;48008;51.204;6.766;2023-02-28T09:32:58;7.85;;;3.22;;
62050;SDS011;48008;51.204;6.766;2023-02-28T09:35:25;11.55;;;3.90;;
62050;SDS011;48008;51.204;6.766;2023-02-28T09:37:52;9.52;;;3.30;;
62050;SDS011;48008;51.204;6.766;2023-02-28T09:40:21;9.43;;;3.55;;
62050;SDS011;48008;51.204;6.766;2023-02-28T09:42:51;8.55;;;3.45;;
62050;SDS011;48008;51.204;6.766;2023-02-28T09:45:24;8.10;;;3.33;;
62050;SDS011;48008;51.204;6.766;2023-02-28T09:48:01;9.15;;;3.55;;
62050;SDS011;48008;51.204;6.766;2023-02-28T09:50:35;10.25;;;3.80;;
62050;SDS011;48008;51.204;6.766;2023-02-28T09:53:10;8.50;;;3.30;;
62050;SDS011;48008;51.204;6.766;2023-02-28T09:55:47;14.52;;;3.33;;
62050;SDS011;48008;51.204;6.766;2023-02-28T09:58:20;8.05;;;3.40;;
62050;SDS011;48008;51.204;6.766;2023-02-28T10:00:57;11.20;;;3.85;;
62050;SDS011;48008;51.204;6.766;2023-02-28T10:03:32;11.10;;;3.30;;
62050;SDS011;48008;51.204;6.766;2023-02-28T10:06:15;9.82;;;3.75;;
62050;SDS011;48008;51.204;6.766;2023-02-28T10:09:02;9.38;;;3.65;;
62050;SDS011;48008;51.204;6.766;2023-02-28T10:11:35;9.50;;;3.65;;
62050;SDS011;48008;51.204;6.766;2023-02-28T10:14:06;9.65;;;3.58;;
62050;SDS011;48008;51.204;6.766;2023-02-28T10:16:42;10.05;;;3.70;;
62050;SDS011;48008;51.204;6.766;2023-02-28T10:19:16;9.05;;;4.10;;
62050;SDS011;48008;51.204;6.766;2023-02-28T10:21:56;15.10;;;3.60;;
62050;SDS011;48008;51.204;6.766;2023-02-28T10:24:28;8.68;;;2.80;;
62050;SDS011;48008;51.204;6.766;2023-02-28T10:27:00;8.57;;;3.30;;
62050;SDS011;48008;51.204;6.766;2023-02-28T10:29:31;8.88;;;3.10;;
62050;SDS011;48008;51.204;6.766;2023-02-28T10:32:00;8.55;;;3.28;;
62050;SDS011;48008;51.204;6.766;2023-02-28T10:34:28;9.18;;;3.78;;
62050;SDS011;48008;51.204;6.766;2023-02-28T10:36:55;7.80;;;3.08;;
62050;SDS011;48008;51.204;6.766;2023-02-28T10:39:38;7.25;;;2.88;;
62050;SDS011;48008;51.204;6.766;2023-02-28T10:42:20;10.55;;;3.10;;
62050;SDS011;48008;51.204;6.766;2023-02-28T10:45:23;11.45;;;4.88;;
62050;SDS011;48008;51.204;6.766;2023-02-28T10:47:49;11.38;;;3.58;;
62050;SDS011;48008;51.204;6.766;2023-02-28T10:50:53;7.50;;;3.05;;
62050;SDS011;48008;51.204;6.766;2023-02-28T10:56:22;7.15;;;3.10;;
62050;SDS011;48008;51.204;6.766;2023-02-28T11:01:51;8.13;;;3.22;;
62050;SDS011;48008;51.204;6.766;2023-02-28T11:04:23;8.02;;;3.08;;
62050;SDS011;48008;51.204;6.766;2023-02-28T11:07:04;7.68;;;3.15;;
62050;SDS011;48008;51.204;6.766;2023-02-28T11:09:44;14.57;;;3.30;;
62050;SDS011;48008;51.204;6.766;2023-02-28T11:12:23;7.68;;;3.30;;
62050;SDS011;48008;51.204;6.766;2023-02-28T11:14:57;7.03;;;2.97;;
62050;SDS011;48008;51.204;6.766;2023-02-28T11:17:29;7.93;;;3.33;;
62050;SDS011;48008;51.204;6.766;2023-02-28T11:19:59;7.78;;;3.22;;
62050;SDS011;48008;51.204;6.766;2023-02-28T11:25:01;9.23;;;3.25;;
62050;SDS011;48008;51.204;6.766;2023-02-28T11:30:05;8.45;;;3.08;;
62050;SDS011;48008;51.204;6.766;2023-02-28T11:32:50;7.47;;;2.88;;
62050;SDS011;48008;51.204;6.766;2023-02-28T11:35:19;8.65;;;3.50;;
62050;SDS011;48008;51.204;6.766;2023-02-28T11:37:51;7.18;;;3.17;;
62050;SDS011;48008;51.204;6.766;2023-02-28T11:40:19;8.02;;;2.92;;
62050;SDS011;48008;51.204;6.766;2023-02-28T11:51:54;11.38;;;3.40;;
62050;SDS011;48008;51.204;6.766;2023-02-28T11:54:29;9.48;;;3.08;;
62050;SDS011;48008;51.204;6.766;2023-02-28T11:57:15;7.10;;;3.00;;
62050;SDS011;48008;51.204;6.766;2023-02-28T12:11:29;9.02;;;3.20;;
62050;SDS011;48008;51.204;6.766;2023-02-28T12:20:08;6.90;;;3.10;;
62050;SDS011;48008;51.204;6.766;2023-02-28T12:28:38;7.45;;;3.38;;
62050;SDS011;48008;51.204;6.766;2023-02-28T12:31:11;8.80;;;3.20;;
62050;SDS011;48008;51.204;6.766;2023-02-28T12:33:46;8.30;;;3.47;;
62050;SDS011;48008;51.204;6.766;2023-02-28T12:38:49;10.55;;;3.38;;
62050;SDS011;48008;51.204;6.766;2023-02-28T12:42:10;8.82;;;3.30;;
62050;SDS011;48008;51.204;6.766;2023-02-28T12:44:33;9.38;;;4.05;;
62050;SDS011;48008;51.204;6.766;2023-02-28T12:47:18;8.52;;;3.40;;
62050;SDS011;48008;51.204;6.766;2023-02-28T12:49:46;8.45;;;3.60;;
62050;SDS011;48008;51.204;6.766;2023-02-28T12:52:21;8.18;;;3.42;;
62050;SDS011;48008;51.204;6.766;2023-02-28T12:55:00;10.25;;;4.13;;
62050;SDS011;48008;51.204;6.766;2023-02-28T12:57:36;8.77;;;3.58;;
62050;SDS011;48008;51.204;6.766;2023-02-28T13:00:13;12.02;;;3.67;;
62050;SDS011;48008;51.204;6.766;2023-02-28T13:02:50;10.45;;;3.63;;
62050;SDS011;48008;51.204;6.766;2023-02-28T13:08:46;9.68;;;3.15;;
62050;SDS011;48008;51.204;6.766;2023-02-28T13:11:38;6.97;;;3.33;;
62050;SDS011;48008;51.204;6.766;2023-02-28T13:14:38;9.95;;;3.80;;
62050;SDS011;48008;51.204;6.766;2023-02-28T13:17:11;7.57;;;3.17;;
62050;SDS011;48008;51.204;6.766;2023-02-28T13:19:45;11.18;;;3.83;;
62050;SDS011;48008;51.204;6.766;2023-02-28T13:25:02;9.05;;;3.35;;
62050;SDS011;48008;51.204;6.766;2023-02-28T13:27:50;8.40;;;3.42;;
62050;SDS011;48008;51.204;6.766;2023-02-28T13:36:09;7.78;;;3.22;;
62050;SDS011;48008;51.204;6.766;2023-02-28T13:38:50;10.35;;;3.90;;
62050;SDS011;48008;51.204;6.766;2023-02-28T13:44:07;9.55;;;3.47;;
62050;SDS011;48008;51.204;6.766;2023-02-28T13:54:56;8.15;;;3.60;;
62050;SDS011;48008;51.204;6.766;2023-02-28T14:06:32;8.90;;;3.90;;
62050;SDS011;48008;51.204;6.766;2023-02-28T14:17:15;9.30;;;4.18;;
62050;SDS011;48008;51.204;6.766;2023-02-28T14:19:44;13.65;;;3.90;;
62050;SDS011;48008;51.204;6.766;2023-02-28T14:22:51;9.75;;;4.45;;
62050;SDS011;48008;51.204;6.766;2023-02-28T14:25:22;10.45;;;3.72;;
62050;SDS011;48008;51.204;6.766;2023-02-28T14:31:09;10.50;;;4.03;;
62050;SDS011;48008;51.204;6.766;2023-02-28T14:33:54;10.52;;;4.07;;
62050;SDS011;48008;51.204;6.766;2023-02-28T14:36:39;8.02;;;4.00;;
62050;SDS011;48008;51.204;6.766;2023-02-28T14:39:16;9.00;;;3.90;;
62050;SDS011;48008;51.204;6.766;2023-02-28T14:41:46;9.18;;;3.92;;
62050;SDS011;48008;51.204;6.766;2023-02-28T14:44:15;8.55;;;3.65;;
62050;SDS011;48008;51.204;6.766;2023-02-28T14:46:48;8.40;;;4.20;;
62050;SDS011;48008;51.204;6.766;2023-02-28T14:49:21;9.50;;;4.40;;
62050;SDS011;48008;51.204;6.766;2023-02-28T14:52:02;11.15;;;4.47;;
62050;SDS011;48008;51.204;6.766;2023-02-28T14:54:36;10.02;;;4.28;;
62050;SDS011;48008;51.204;6.766;2023-02-28T14:57:04;8.63;;;4.38;;
62050;SDS011;48008;51.204;6.766;2023-02-28T14:59:32;13.00;;;4.20;;
62050;SDS011;48008;51.204;6.766;2023-02-28T15:02:34;8.90;;;4.20;;
62050;SDS011;48008;51.204;6.766;2023-02-28T15:04:54;11.43;;;4.43;;
62050;SDS011;48008;51.204;6.766;2023-02-28T15:07:23;10.57;;;4.30;;
62050;SDS011;48008;51.204;6.766;2023-02-28T15:10:15;9.20;;;4.25;;
62050;SDS011;48008;51.204;6.766;2023-02-28T15:12:52;10.52;;;4.57;;
62050;SDS011;48008;51.204;6.766;2023-02-28T15:15:25;9.63;;;4.60;;
62050;SDS011;48008;51.204;6.766;2023-02-28T15:18:01;9.65;;;4.00;;
62050;SDS011;48008;51.204;6.766;2023-02-28T15:20:31;9.60;;;4.80;;
62050;SDS011;48008;51.204;6.766;2023-02-28T15:22:59;12.65;;;4.78;;
62050;SDS011;48008;51.204;6.766;2023-02-28T15:25:26;9.80;;;4.78;;
62050;SDS011;48008;51.204;6.766;2023-02-28T15:27:54;11.38;;;4.68;;
62050;SDS011;48008;51.204;6.766;2023-02-28T15:30:24;10.98;;;4.75;;
62050;SDS011;48008;51.204;6.766;2023-02-28T15:33:31;9.65;;;4.68;;
62050;SDS011;48008;51.204;6.766;2023-02-28T15:35:47;12.82;;;4.93;;
62050;SDS011;48008;51.204;6.766;2023-02-28T15:38:29;11.38;;;4.43;;
62050;SDS011;48008;51.204;6.766;2023-02-28T15:41:01;9.45;;;4.60;;
62050;SDS011;48008;51.204;6.766;2023-02-28T15:43:29;8.85;;;4.45;;
62050;SDS011;48008;51.204;6.766;2023-02-28T15:45:59;14.75;;;4.47;;
62050;SDS011;48008;51.204;6.766;2023-02-28T15:48:31;10.70;;;4.68;;
62050;SDS011;48008;51.204;6.766;2023-02-28T15:53:43;9.55;;;4.50;;
62050;SDS011;48008;51.204;6.766;2023-02-28T15:56:19;13.57;;;5.20;;
62050;SDS011;48008;51.204;6.766;2023-02-28T15:58:53;9.82;;;4.68;;
62050;SDS011;48008;51.204;6.766;2023-02-28T16:01:25;9.80;;;5.03;;
62050;SDS011;48008;51.204;6.766;2023-02-28T16:03:57;9.82;;;4.80;;
62050;SDS011;48008;51.204;6.766;2023-02-28T16:06:35;12.57;;;4.88;;
62050;SDS011;48008;51.204;6.766;2023-02-28T16:09:09;12.27;;;5.22;;
62050;SDS011;48008;51.204;6.766;2023-02-28T16:11:40;10.32;;;4.72;;
62050;SDS011;48008;51.204;6.766;2023-02-28T16:14:13;10.65;;;5.03;;
62050;SDS011;48008;51.204;6.766;2023-02-28T16:16:45;10.57;;;4.70;;
62050;SDS011;48008;51.204;6.766;2023-02-28T16:19:14;9.63;;;4.30;;
62050;SDS011;48008;51.204;6.766;2023-02-28T16:21:41;12.05;;;5.25;;
62050;SDS011;48008;51.204;6.766;2023-02-28T16:24:08;13.23;;;5.55;;
62050;SDS011;48008;51.204;6.766;2023-02-28T16:26:35;10.07;;;4.65;;
62050;SDS011;48008;51.204;6.766;2023-02-28T16:29:03;10.13;;;5.15;;
62050;SDS011;48008;51.204;6.766;2023-02-28T16:31:31;13.07;;;5.32;;
62050;SDS011;48008;51.204;6.766;2023-02-28T16:34:02;10.52;;;5.00;;
62050;SDS011;48008;51.204;6.766;2023-02-28T16:36:29;10.00;;;5.25;;
62050;SDS011;48008;51.204;6.766;2023-02-28T16:38:56;9.70;;;5.00;;
62050;SDS011;48008;51.204;6.766;2023-02-28T16:41:25;10.32;;;5.18;;
62050;SDS011;48008;51.204;6.766;2023-02-28T16:43:55;10.90;;;5.40;;
62050;SDS011;48008;51.204;6.766;2023-02-28T16:46:27;11.43;;;5.25;;
62050;SDS011;48008;51.204;6.766;2023-02-28T16:48:59;12.82;;;5.63;;
62050;SDS011;48008;51.204;6.766;2023-02-28T16:51:26;13.10;;;5.50;;
62050;SDS011;48008;51.204;6.766;2023-02-28T16:53:53;12.50;;;5.45;;
62050;SDS011;48008;51.204;6.766;2023-02-28T16:56:21;10.85;;;5.38;;
62050;SDS011;48008;51.204;6.766;2023-02-28T16:58:50;12.45;;;5.50;;
62050;SDS011;48008;51.204;6.766;2023-02-28T17:01:17;14.93;;;7.18;;
62050;SDS011;48008;51.204;6.766;2023-02-28T17:03:48;10.63;;;5.43;;
62050;SDS011;48008;51.204;6.766;2023-02-28T17:06:20;15.32;;;5.82;;
62050;SDS011;48008;51.204;6.766;2023-02-28T17:08:49;11.77;;;5.60;;